createdAt,value
2018-09-18T00:23:18.917Z,4.00
2018-09-18T00:54:55.455Z,4.40
2018-09-18T01:00:10.666Z,4.30
2018-09-18T01:10:39.241Z,4.70
2018-09-18T01:15:48.460Z,4.00
2018-09-18T01:31:45.926Z,4.40
2018-09-18T01:36:58.984Z,4.50
2018-09-18T01:42:03.157Z,7.10
2018-09-18T02:08:29.752Z,3.60
2018-09-18T02:19:04.513Z,4.20
2018-09-18T02:24:31.117Z,3.90
2018-09-18T02:29:41.104Z,4.10
2018-09-18T02:40:07.268Z,4.50
2018-09-18T02:50:26.345Z,4.10
2018-09-18T03:16:46.558Z,4.30
2018-09-18T03:21:59.334Z,3.30
2018-09-18T03:43:06.820Z,3.30
2018-09-18T03:48:33.226Z,3.90
2018-09-18T03:53:36.927Z,3.50
2018-09-18T03:58:42.858Z,3.80
2018-09-18T04:09:16.644Z,3.70
2018-09-18T04:14:34.290Z,3.60
2018-09-18T04:19:51.297Z,3.40
2018-09-18T04:25:14.643Z,4.10
2018-09-18T04:30:36.936Z,3.70
2018-09-18T04:35:50.121Z,4.90
2018-09-18T04:41:03.822Z,3.40
2018-09-18T04:46:18.312Z,3.70
2018-09-18T04:51:26.108Z,3.60
2018-09-18T04:56:42.951Z,3.70
2018-09-18T05:01:51.354Z,3.40
2018-09-18T05:07:07.739Z,3.70
2018-09-18T05:12:30.877Z,3.30
2018-09-18T05:17:47.047Z,3.80
2018-09-18T05:23:06.345Z,4.00
2018-09-18T05:28:28.321Z,3.80
2018-09-18T05:39:04.256Z,4.70
2018-09-18T05:44:22.974Z,4.10
2018-09-18T05:49:38.921Z,4.20
2018-09-18T05:54:50.727Z,4.30
2018-09-18T06:00:05.488Z,4.60
2018-09-18T06:05:25.386Z,4.30
2018-09-18T06:15:58.917Z,4.40
2018-09-18T06:21:12.843Z,4.50
2018-09-18T06:26:26.897Z,4.70
2018-09-18T06:31:39.407Z,4.80
2018-09-18T06:36:58.523Z,5.70
2018-09-18T06:42:15.557Z,7.70
2018-09-18T06:47:22.386Z,4.60
2018-09-18T06:52:24.980Z,3.60
2018-09-18T06:57:38.459Z,3.50
2018-09-18T07:02:49.479Z,4.10
2018-09-18T07:07:53.254Z,3.70
2018-09-18T07:13:06.124Z,3.20
2018-09-18T07:18:13.512Z,4.10
2018-09-18T07:23:12.827Z,4.00
2018-09-18T07:28:07.391Z,3.90
2018-09-18T07:33:04.665Z,3.70
2018-09-18T07:38:06.744Z,3.70
2018-09-18T07:43:43.439Z,4.20
2018-09-18T07:48:54.707Z,4.40
2018-09-18T07:59:28.355Z,5.00
2018-09-18T08:04:46.397Z,5.40
2018-09-18T08:09:30.535Z,4.30
2018-09-18T08:14:50.021Z,4.60
2018-09-18T08:19:47.482Z,4.90
2018-09-18T08:24:55.499Z,4.40
2018-09-18T08:30:07.657Z,6.50
2018-09-18T08:34:54.918Z,6.20
2018-09-18T08:39:54.583Z,4.90
2018-09-18T08:44:46.843Z,5.40
2018-09-18T08:49:35.853Z,4.40
2018-09-18T08:54:27.562Z,9.50
2018-09-18T08:59:32.586Z,15.40
2018-09-18T09:04:20.473Z,11.50
2018-09-18T09:09:26.408Z,8.90
2018-09-18T09:14:48.273Z,12.20
2018-09-18T09:20:10.001Z,12.80
2018-09-18T09:25:42.163Z,7.60
2018-09-18T09:31:04.179Z,7.10
2018-09-18T09:35:47.001Z,6.30
2018-09-18T09:41:11.541Z,6.10
2018-09-18T09:46:04.196Z,5.30
2018-09-18T09:51:01.568Z,4.40
2018-09-18T09:55:55.348Z,3.80
2018-09-18T10:06:34.813Z,3.50
2018-09-18T10:11:25.361Z,2.90
2018-09-18T10:16:14.719Z,3.60
2018-09-18T10:21:08.025Z,3.70
2018-09-18T10:26:05.828Z,3.60
2018-09-18T10:31:06.476Z,3.90
2018-09-18T10:36:02.422Z,4.30
2018-09-18T10:40:53.859Z,3.90
2018-09-18T10:46:04.113Z,4.50
2018-09-18T10:50:55.918Z,4.10
2018-09-18T10:55:47.570Z,4.40
2018-09-18T11:00:40.309Z,4.60
2018-09-18T11:05:31.077Z,4.90
2018-09-18T11:10:31.470Z,4.30
2018-09-18T11:15:18.738Z,3.20
2018-09-18T11:20:21.033Z,4.10
2018-09-18T11:25:18.541Z,4.60
2018-09-18T11:30:15.797Z,4.30
2018-09-18T11:35:10.568Z,4.30
2018-09-18T11:40:04.596Z,2.90
2018-09-18T11:45:06.782Z,3.30
2018-09-18T11:49:59.192Z,3.10
2018-09-18T11:55:35.954Z,3.70
2018-09-18T12:00:23.228Z,3.40
2018-09-18T12:05:16.134Z,3.20
2018-09-18T12:10:10.357Z,2.60
2018-09-18T12:15:26.426Z,2.80
2018-09-18T12:21:06.390Z,2.90
2018-09-18T12:26:13.861Z,2.70
2018-09-18T12:31:19.171Z,2.80
2018-09-18T13:38:59.545Z,2.70
2018-09-18T13:44:29.410Z,2.60
2018-09-18T13:49:40.605Z,2.60
2018-09-18T13:55:02.372Z,2.20
2018-09-18T13:59:50.440Z,2.80
2018-09-18T14:04:53.334Z,1.70
2018-09-18T14:09:43.830Z,2.60
2018-09-18T14:14:35.113Z,1.60
2018-09-18T14:19:26.263Z,1.40
2018-09-18T14:24:17.855Z,1.80
2018-09-18T14:29:10.135Z,1.80
2018-09-18T14:34:04.131Z,2.30
2018-09-18T14:38:56.627Z,1.90
2018-09-18T14:43:56.851Z,2.20
2018-09-18T14:48:46.825Z,2.10
2018-09-18T14:53:38.437Z,2.20
2018-09-18T14:58:26.442Z,1.40
2018-09-18T15:03:19.515Z,2.00
2018-09-18T15:08:11.728Z,1.50
2018-09-18T15:13:04.247Z,1.90
2018-09-18T15:17:57.620Z,1.50
2018-09-18T15:22:47.236Z,1.50
2018-09-18T15:27:38.309Z,1.40
2018-09-18T15:32:33.176Z,1.40
2018-09-18T15:37:24.893Z,1.90
2018-09-18T15:42:17.887Z,1.90
2018-09-18T15:47:10.438Z,1.80
2018-09-18T15:52:04.039Z,1.60
2018-09-18T15:56:56.368Z,2.00
2018-09-18T16:01:48.424Z,1.90
2018-09-18T16:06:40.709Z,1.50
2018-09-18T16:11:28.240Z,1.90
2018-09-18T16:16:21.630Z,1.80
2018-09-18T16:21:14.718Z,2.20
2018-09-18T16:26:06.561Z,1.90
2018-09-18T16:30:58.360Z,2.00
2018-09-18T16:35:51.097Z,2.60
2018-09-18T16:40:42.787Z,2.20
2018-09-18T16:45:34.959Z,2.00
2018-09-18T16:50:28.911Z,2.10
2018-09-18T16:55:22.521Z,2.10
2018-09-18T17:00:14.006Z,1.60
2018-09-18T17:05:05.959Z,2.70
2018-09-18T17:09:57.590Z,2.40
2018-09-18T17:14:49.633Z,2.10
2018-09-18T17:19:42.181Z,3.90
2018-09-18T17:24:34.762Z,2.40
2018-09-18T17:29:27.119Z,2.50
2018-09-18T17:34:19.357Z,2.70
2018-09-18T17:39:14.653Z,2.70
2018-09-18T17:44:04.587Z,2.10
2018-09-18T17:48:56.597Z,2.90
2018-09-18T17:53:49.454Z,2.90
2018-09-18T17:58:41.300Z,2.70
2018-09-18T18:03:34.199Z,2.70
2018-09-18T18:08:26.160Z,4.90
2018-09-18T18:13:18.435Z,2.80
2018-09-18T18:18:13.509Z,4.20
2018-09-18T18:23:07.540Z,4.40
2018-09-18T18:28:04.009Z,3.90
2018-09-18T18:32:59.058Z,3.50
2018-09-18T18:37:52.975Z,3.10
2018-09-18T18:42:50.152Z,3.30
2018-09-18T18:47:44.177Z,3.70
2018-09-18T18:52:39.398Z,4.80
2018-09-18T18:57:35.415Z,4.30
2018-09-18T19:02:31.193Z,4.50
2018-09-18T19:07:25.090Z,3.80
2018-09-18T19:12:24.286Z,3.60
2018-09-18T19:17:26.216Z,3.60
2018-09-18T19:22:21.231Z,3.60
2018-09-18T19:27:16.754Z,3.60
2018-09-18T19:32:10.174Z,3.40
2018-09-18T19:37:05.736Z,3.50
2018-09-18T19:42:01.207Z,3.20
2018-09-18T19:46:56.724Z,3.20
2018-09-18T19:51:52.266Z,3.10
2018-09-18T19:56:50.610Z,3.70
2018-09-18T20:01:49.031Z,6.50
2018-09-18T20:06:46.578Z,3.60
2018-09-18T20:12:10.048Z,4.20
2018-09-18T20:17:11.776Z,15.50
2018-09-18T20:22:04.053Z,25.00
2018-09-18T20:27:02.673Z,4.10
2018-09-18T20:32:03.744Z,3.50
2018-09-18T20:37:04.308Z,3.50
2018-09-18T20:42:13.221Z,4.00
2018-09-18T20:47:11.780Z,3.20
2018-09-18T20:52:16.428Z,3.40
2018-09-18T20:57:17.228Z,3.60
2018-09-18T21:02:18.263Z,4.10
2018-09-18T21:07:23.076Z,3.50
2018-09-18T21:12:26.256Z,3.90
2018-09-18T21:17:29.370Z,4.00
2018-09-18T21:22:35.644Z,3.90
2018-09-18T21:27:38.559Z,4.00
2018-09-18T21:32:48.335Z,4.10
2018-09-18T21:37:59.322Z,3.70
2018-09-18T21:43:03.364Z,5.10
2018-09-18T21:48:17.638Z,4.40
2018-09-18T21:53:25.756Z,3.80
2018-09-18T21:58:31.437Z,4.30
2018-09-18T22:03:37.360Z,4.10
2018-09-18T22:08:52.392Z,4.40
2018-09-18T22:14:00.417Z,4.30
2018-09-18T22:19:17.324Z,4.40
2018-09-18T22:24:33.211Z,4.20
2018-09-18T22:29:49.083Z,4.40
2018-09-18T22:35:08.372Z,4.50
2018-09-18T22:40:23.825Z,4.30
2018-09-18T22:45:32.226Z,3.90
2018-09-18T22:50:44.160Z,4.30
2018-09-18T22:55:55.253Z,4.60
2018-09-18T23:01:14.732Z,4.30
2018-09-18T23:06:25.062Z,4.20
2018-09-18T23:11:37.354Z,4.40
2018-09-18T23:16:48.704Z,4.40
2018-09-18T23:22:10.574Z,4.30
2018-09-18T23:27:24.541Z,4.70
2018-09-18T23:32:39.212Z,4.70
2018-09-18T23:43:12.025Z,5.20
2018-09-18T23:48:33.976Z,5.40
2018-09-18T23:53:55.635Z,4.30
2018-09-18T23:59:17.334Z,4.90
